createdAt,value
2018-01-10T00:00:05.774Z,38.20
2018-01-10T00:02:34.066Z,38.93
2018-01-10T00:05:02.319Z,40.57
2018-01-10T00:07:30.636Z,36.83
2018-01-10T00:09:58.878Z,40.93
2018-01-10T00:12:27.874Z,35.40
2018-01-10T00:14:56.997Z,38.97
2018-01-10T00:17:25.982Z,37.67
2018-01-10T00:19:54.209Z,37.73
2018-01-10T00:22:22.622Z,45.13
2018-01-10T00:24:51.620Z,46.03
2018-01-10T00:27:19.849Z,41.00
2018-01-10T00:29:48.152Z,39.97
2018-01-10T00:32:16.434Z,41.20
2018-01-10T00:34:44.660Z,39.73
2018-01-10T00:37:12.906Z,40.27
2018-01-10T00:39:41.138Z,39.50
2018-01-10T00:42:09.422Z,37.27
2018-01-10T00:44:37.670Z,38.00
2018-01-10T00:47:05.890Z,36.83
2018-01-10T00:49:34.882Z,39.07
2018-01-10T00:52:03.946Z,37.63
2018-01-10T00:54:32.187Z,35.23
2018-01-10T00:57:00.414Z,34.60
2018-01-10T00:59:29.445Z,35.07
2018-01-10T01:01:58.006Z,38.97
2018-01-10T01:04:27.014Z,48.70
2018-01-10T01:06:56.032Z,37.47
2018-01-10T01:09:24.273Z,41.60
2018-01-10T01:11:53.261Z,39.97
2018-01-10T01:14:22.318Z,34.70
2018-01-10T01:16:50.607Z,36.87
2018-01-10T01:19:18.841Z,36.53
2018-01-10T01:21:47.142Z,32.63
2018-01-10T01:24:15.371Z,40.13
2018-01-10T01:26:44.385Z,42.57
2018-01-10T01:29:13.417Z,42.20
2018-01-10T01:31:41.634Z,32.60
2018-01-10T01:34:10.618Z,38.23
2018-01-10T01:36:39.750Z,40.50
2018-01-10T01:39:08.746Z,40.93
2018-01-10T01:41:37.014Z,38.27
2018-01-10T01:44:05.298Z,38.77
2018-01-10T01:46:33.533Z,35.90
2018-01-10T01:49:02.570Z,30.23
2018-01-10T01:51:30.814Z,40.10
2018-01-10T01:53:59.866Z,50.43
2018-01-10T01:56:28.263Z,36.37
2018-01-10T01:58:56.538Z,34.70
2018-01-10T02:01:24.783Z,37.50
2018-01-10T02:03:53.100Z,35.97
2018-01-10T02:06:21.368Z,28.00
2018-01-10T02:08:49.659Z,40.90
2018-01-10T02:11:17.886Z,35.20
2018-01-10T02:13:46.164Z,33.97
2018-01-10T02:16:14.397Z,34.90
2018-01-10T02:18:43.429Z,41.53
2018-01-10T02:21:11.747Z,43.50
2018-01-10T02:23:39.983Z,44.93
2018-01-10T02:26:08.229Z,34.73
2018-01-10T02:28:37.329Z,40.70
2018-01-10T02:31:05.736Z,40.20
2018-01-10T02:33:33.965Z,32.40
2018-01-10T02:36:02.206Z,34.40
2018-01-10T02:38:30.582Z,41.07
2018-01-10T02:40:58.839Z,37.90
2018-01-10T02:43:29.551Z,39.23
2018-01-10T02:45:58.535Z,37.60
2018-01-10T02:48:27.542Z,35.37
2018-01-10T02:50:55.796Z,37.53
2018-01-10T02:53:24.030Z,41.90
2018-01-10T02:55:52.252Z,34.37
2018-01-10T02:58:21.330Z,37.17
2018-01-10T03:00:50.328Z,43.20
2018-01-10T03:03:18.664Z,36.50
2018-01-10T03:05:46.921Z,37.20
2018-01-10T03:08:15.214Z,31.00
2018-01-10T03:10:43.490Z,38.77
2018-01-10T03:13:11.771Z,30.00
2018-01-10T03:15:40.046Z,31.63
2018-01-10T03:18:08.299Z,45.87
2018-01-10T03:20:36.619Z,43.17
2018-01-10T03:23:04.850Z,35.23
2018-01-10T03:25:33.155Z,32.43
2018-01-10T03:28:01.553Z,39.00
2018-01-10T03:30:29.848Z,32.27
2018-01-10T03:32:58.127Z,37.47
2018-01-10T03:35:27.154Z,31.47
2018-01-10T03:37:55.435Z,29.83
2018-01-10T03:40:24.405Z,37.87
2018-01-10T03:42:53.469Z,33.90
2018-01-10T03:45:21.712Z,36.83
2018-01-10T03:47:49.957Z,27.40
2018-01-10T03:50:19.038Z,28.57
2018-01-10T03:52:48.051Z,29.77
2018-01-10T03:55:16.348Z,30.27
2018-01-10T03:57:44.627Z,33.20
2018-01-10T04:00:12.856Z,32.07
2018-01-10T04:02:41.860Z,29.57
2018-01-10T04:05:10.914Z,30.57
2018-01-10T04:07:39.187Z,26.93
2018-01-10T04:10:07.445Z,28.43
2018-01-10T04:12:36.831Z,26.80
2018-01-10T04:15:05.058Z,29.63
2018-01-10T04:17:33.301Z,25.80
2018-01-10T04:20:01.556Z,25.80
2018-01-10T04:22:29.845Z,27.83
2018-01-10T04:24:58.071Z,28.00
2018-01-10T04:27:26.352Z,30.30
2018-01-10T04:29:54.578Z,31.27
2018-01-10T04:32:22.807Z,31.07
2018-01-10T04:34:51.866Z,30.53
2018-01-10T04:37:20.107Z,29.43
2018-01-10T04:39:48.336Z,28.03
2018-01-10T04:42:17.952Z,26.73
2018-01-10T04:44:46.230Z,27.20
2018-01-10T04:47:15.230Z,26.10
2018-01-10T04:49:44.238Z,32.33
2018-01-10T04:52:12.474Z,30.40
2018-01-10T04:54:40.736Z,29.60
2018-01-10T04:57:09.091Z,26.67
2018-01-10T04:59:38.107Z,30.47
2018-01-10T05:02:06.322Z,30.20
2018-01-10T05:04:35.334Z,32.40
2018-01-10T05:07:03.830Z,28.33
2018-01-10T05:09:32.049Z,29.03
2018-01-10T05:12:00.353Z,27.73
2018-01-10T05:14:29.370Z,31.50
2018-01-10T05:16:58.379Z,30.30
2018-01-10T05:19:26.695Z,28.27
2018-01-10T05:21:54.973Z,36.70
2018-01-10T05:24:23.210Z,31.70
2018-01-10T05:26:51.521Z,30.90
2018-01-10T05:29:19.767Z,30.67
2018-01-10T05:31:48.331Z,29.27
2018-01-10T05:34:17.592Z,29.87
2018-01-10T05:36:45.814Z,29.73
2018-01-10T05:39:14.042Z,23.57
2018-01-10T05:41:43.095Z,26.87
2018-01-10T05:44:11.406Z,29.63
2018-01-10T05:46:39.742Z,32.87
2018-01-10T05:49:08.017Z,35.40
2018-01-10T05:51:36.260Z,37.97
2018-01-10T05:54:04.525Z,31.77
2018-01-10T05:56:33.567Z,28.03
2018-01-10T05:59:01.827Z,35.90
2018-01-10T06:01:30.210Z,36.10
2018-01-10T06:03:58.506Z,34.37
2018-01-10T06:06:26.741Z,37.97
2018-01-10T06:08:55.757Z,30.47
2018-01-10T06:11:23.993Z,39.13
2018-01-10T06:13:53.034Z,42.13
2018-01-10T06:16:21.262Z,37.73
2018-01-10T06:18:50.291Z,37.87
2018-01-10T06:21:18.544Z,38.20
2018-01-10T06:23:47.582Z,39.73
2018-01-10T06:26:15.870Z,37.10
2018-01-10T06:28:44.104Z,36.93
2018-01-10T06:31:12.354Z,30.43
2018-01-10T06:33:41.378Z,35.60
2018-01-10T06:36:09.631Z,34.80
2018-01-10T06:38:37.904Z,35.20
2018-01-10T06:41:07.039Z,34.87
2018-01-10T06:43:35.302Z,33.27
2018-01-10T06:46:04.776Z,34.43
2018-01-10T06:48:33.150Z,33.53
2018-01-10T06:51:01.373Z,41.23
2018-01-10T06:53:29.630Z,38.37
2018-01-10T06:55:57.874Z,35.10
2018-01-10T06:58:26.155Z,33.03
2018-01-10T07:00:54.360Z,36.03
2018-01-10T07:03:22.662Z,30.37
2018-01-10T07:05:50.908Z,30.50
2018-01-10T07:08:19.953Z,36.47
2018-01-10T07:10:48.257Z,30.77
2018-01-10T07:13:16.553Z,35.07
2018-01-10T07:15:44.754Z,34.93
2018-01-10T07:18:13.063Z,42.80
2018-01-10T07:20:41.364Z,37.73
2018-01-10T07:23:10.422Z,40.83
2018-01-10T07:25:38.680Z,32.23
2018-01-10T07:28:07.260Z,38.40
2018-01-10T07:30:35.535Z,29.43
2018-01-10T07:33:03.816Z,32.10
2018-01-10T07:35:32.066Z,29.53
2018-01-10T07:38:01.099Z,32.70
2018-01-10T07:40:29.375Z,32.37
2018-01-10T07:42:57.615Z,38.27
2018-01-10T07:48:11.017Z,39.27
2018-01-10T07:50:39.230Z,38.53
2018-01-10T07:53:09.134Z,31.27
2018-01-10T07:55:37.432Z,26.73
2018-01-10T07:58:05.650Z,25.93
2018-01-10T08:00:33.916Z,26.33
2018-01-10T08:03:02.200Z,29.73
2018-01-10T08:05:30.455Z,26.73
2018-01-10T08:07:58.758Z,31.43
2018-01-10T08:10:27.226Z,30.57
2018-01-10T08:12:55.491Z,29.23
2018-01-10T08:15:23.739Z,29.30
2018-01-10T08:17:52.882Z,26.77
2018-01-10T08:20:21.139Z,25.90
2018-01-10T08:22:49.609Z,28.80
2018-01-10T08:25:17.897Z,21.77
2018-01-10T08:27:46.141Z,30.90
2018-01-10T08:30:15.138Z,24.40
2018-01-10T08:32:44.232Z,26.70
2018-01-10T08:35:13.248Z,29.60
2018-01-10T08:37:41.485Z,30.00
2018-01-10T08:40:10.538Z,25.50
2018-01-10T08:42:38.792Z,25.77
2018-01-10T08:45:07.089Z,28.30
2018-01-10T08:47:35.614Z,21.57
2018-01-10T08:50:04.706Z,24.60
2018-01-10T08:52:32.984Z,23.33
2018-01-10T08:55:01.265Z,26.73
2018-01-10T08:57:29.577Z,25.10
2018-01-10T08:59:58.602Z,29.17
2018-01-10T09:02:26.907Z,25.33
2018-01-10T09:04:55.150Z,24.20
2018-01-10T09:07:23.446Z,20.77
2018-01-10T09:09:51.762Z,30.93
2018-01-10T09:12:20.766Z,25.33
2018-01-10T09:14:49.025Z,25.87
2018-01-10T09:17:18.142Z,21.07
2018-01-10T09:19:46.371Z,24.03
2018-01-10T09:22:14.602Z,21.33
2018-01-10T09:24:42.948Z,20.37
2018-01-10T09:27:11.978Z,20.17
2018-01-10T09:29:40.366Z,20.97
2018-01-10T09:32:08.828Z,19.60
2018-01-10T09:34:37.142Z,20.30
2018-01-10T09:37:05.411Z,20.80
2018-01-10T09:39:34.996Z,19.70
2018-01-10T09:42:03.214Z,22.37
2018-01-10T09:44:31.446Z,18.20
2018-01-10T09:46:59.718Z,18.93
2018-01-10T09:49:27.977Z,18.43
2018-01-10T09:51:57.064Z,20.37
2018-01-10T09:54:25.313Z,15.77
2018-01-10T09:56:53.554Z,17.40
2018-01-10T09:59:21.892Z,13.93
2018-01-10T10:01:50.329Z,14.00
2018-01-10T10:04:18.570Z,13.67
2018-01-10T10:06:46.891Z,13.80
2018-01-10T10:09:15.222Z,13.93
2018-01-10T10:11:43.477Z,12.07
2018-01-10T10:14:12.503Z,13.03
2018-01-10T10:16:40.764Z,12.33
2018-01-10T10:19:09.034Z,10.90
2018-01-10T10:21:37.281Z,11.30
2018-01-10T10:24:05.573Z,12.73
2018-01-10T10:26:33.862Z,12.33
2018-01-10T10:29:02.092Z,10.87
2018-01-10T10:31:30.374Z,10.90
2018-01-10T10:33:58.607Z,10.17
2018-01-10T10:36:26.838Z,10.10
2018-01-10T10:38:55.110Z,9.17
2018-01-10T10:41:23.334Z,11.37
2018-01-10T10:43:51.582Z,9.83
2018-01-10T10:46:20.831Z,10.67
2018-01-10T10:48:49.072Z,10.77
2018-01-10T10:51:17.307Z,10.30
2018-01-10T10:53:45.627Z,9.90
2018-01-10T10:56:14.627Z,8.90
2018-01-10T10:58:42.854Z,8.17
2018-01-10T11:01:11.158Z,9.87
2018-01-10T11:03:40.175Z,11.73
2018-01-10T11:06:08.478Z,9.13
2018-01-10T11:08:36.862Z,12.10
2018-01-10T11:11:05.131Z,10.90
2018-01-10T11:13:33.356Z,10.10
2018-01-10T11:16:02.382Z,10.87
2018-01-10T11:18:30.649Z,9.90
2018-01-10T11:20:58.889Z,9.37
2018-01-10T11:23:27.257Z,11.20
2018-01-10T11:25:55.466Z,16.73
2018-01-10T11:28:27.613Z,15.37
2018-01-10T11:30:55.942Z,16.30
2018-01-10T11:33:24.220Z,18.30
2018-01-10T11:35:52.458Z,16.83
2018-01-10T11:38:20.771Z,15.97
2018-01-10T11:40:48.998Z,16.20
2018-01-10T11:43:18.005Z,16.70
2018-01-10T11:45:47.040Z,18.07
2018-01-10T11:48:15.297Z,15.23
2018-01-10T11:50:43.586Z,16.73
2018-01-10T11:53:13.502Z,18.00
2018-01-10T11:55:41.823Z,17.20
2018-01-10T11:58:10.112Z,16.83
2018-01-10T12:00:38.410Z,15.23
2018-01-10T12:03:06.685Z,18.17
2018-01-10T12:05:34.899Z,18.60
2018-01-10T12:08:03.194Z,17.33
2018-01-10T12:10:31.433Z,19.17
2018-01-10T12:12:59.729Z,24.23
2018-01-10T12:15:28.086Z,19.07
2018-01-10T12:17:56.343Z,16.27
2018-01-10T12:20:24.643Z,13.60
2018-01-10T12:22:52.934Z,11.33
2018-01-10T12:25:21.194Z,13.23
2018-01-10T12:27:49.449Z,13.83
2018-01-10T12:30:17.758Z,13.40
2018-01-10T12:32:45.997Z,13.00
2018-01-10T12:35:14.378Z,13.27
2018-01-10T12:37:42.669Z,12.17
2018-01-10T12:40:10.904Z,11.03
2018-01-10T12:42:39.144Z,12.60
2018-01-10T12:45:07.412Z,12.33
2018-01-10T12:47:35.656Z,13.17
2018-01-10T12:50:03.942Z,13.83
2018-01-10T12:52:32.229Z,12.53
2018-01-10T12:55:00.467Z,12.83
2018-01-10T12:57:29.506Z,10.67
2018-01-10T12:59:57.837Z,10.50
2018-01-10T13:02:26.838Z,12.30
2018-01-10T13:04:55.870Z,11.50
2018-01-10T13:07:24.153Z,12.17
2018-01-10T13:09:52.386Z,12.40
2018-01-10T13:12:21.518Z,14.00
2018-01-10T13:14:49.875Z,16.80
2018-01-10T13:17:18.074Z,17.43
2018-01-10T13:19:46.387Z,23.73
2018-01-10T13:22:14.845Z,25.47
2018-01-10T13:24:43.086Z,25.57
2018-01-10T13:27:11.628Z,22.63
2018-01-10T13:29:40.125Z,17.37
2018-01-10T13:32:08.568Z,16.73
2018-01-10T13:34:37.092Z,15.47
2018-01-10T13:37:05.336Z,15.97
2018-01-10T13:39:33.568Z,15.60
2018-01-10T13:42:01.817Z,17.20
2018-01-10T13:44:30.946Z,17.37
2018-01-10T13:46:59.978Z,18.17
2018-01-10T13:49:28.226Z,17.40
2018-01-10T13:51:56.590Z,16.57
2018-01-10T13:54:24.878Z,17.47
2018-01-10T13:56:53.232Z,16.63
2018-01-10T13:59:21.770Z,18.13
2018-01-10T14:01:50.101Z,18.63
2018-01-10T14:04:18.654Z,18.73
2018-01-10T14:06:46.950Z,19.60
2018-01-10T14:09:16.258Z,17.63
2018-01-10T14:11:44.543Z,18.17
2018-01-10T14:14:12.806Z,17.77
2018-01-10T14:16:41.182Z,19.27
2018-01-10T14:19:09.468Z,18.50
2018-01-10T14:21:38.244Z,17.77
2018-01-10T14:24:06.512Z,19.50
2018-01-10T14:26:35.533Z,19.07
2018-01-10T14:29:03.805Z,18.07
2018-01-10T14:31:32.052Z,19.43
2018-01-10T14:34:00.412Z,18.60
2018-01-10T14:36:28.706Z,17.87
2018-01-10T14:38:57.714Z,20.20
2018-01-10T14:41:26.714Z,19.03
2018-01-10T14:43:55.049Z,20.33
2018-01-10T14:46:23.392Z,17.17
2018-01-10T14:48:51.647Z,16.97
2018-01-10T14:51:20.726Z,17.30
2018-01-10T14:53:49.760Z,17.67
2018-01-10T14:56:17.994Z,17.63
2018-01-10T14:58:47.049Z,19.53
2018-01-10T15:01:15.426Z,20.93
2018-01-10T15:03:43.669Z,18.40
2018-01-10T15:06:12.766Z,21.97
2018-01-10T15:08:41.259Z,19.10
2018-01-10T15:11:09.646Z,19.33
2018-01-10T15:13:38.001Z,21.47
2018-01-10T15:16:06.983Z,19.57
2018-01-10T15:18:36.058Z,20.37
2018-01-10T15:21:04.318Z,20.00
2018-01-10T15:23:32.575Z,21.37
2018-01-10T15:26:00.850Z,20.90
2018-01-10T15:28:29.125Z,18.47
2018-01-10T15:30:57.357Z,19.53
2018-01-10T15:33:26.390Z,20.03
2018-01-10T15:35:54.695Z,19.33
2018-01-10T15:38:23.281Z,20.50
2018-01-10T15:40:51.538Z,19.60
2018-01-10T15:43:19.788Z,19.37
2018-01-10T15:45:48.040Z,20.30
2018-01-10T15:48:17.288Z,20.30
2018-01-10T15:50:45.562Z,20.80
2018-01-10T15:53:14.032Z,20.60
2018-01-10T15:55:42.270Z,19.33
2018-01-10T15:58:10.599Z,21.83
2018-01-10T16:00:38.890Z,22.80
2018-01-10T16:03:09.744Z,20.30
2018-01-10T16:05:37.998Z,22.73
2018-01-10T16:08:06.302Z,23.93
2018-01-10T16:10:35.327Z,22.00
2018-01-10T16:13:03.581Z,23.93
2018-01-10T16:15:32.571Z,22.03
2018-01-10T16:18:01.606Z,20.37
2018-01-10T16:20:30.009Z,21.47
2018-01-10T16:22:58.240Z,22.70
2018-01-10T16:25:26.560Z,24.07
2018-01-10T16:27:54.942Z,24.33
2018-01-10T16:30:23.202Z,26.10
2018-01-10T16:32:51.566Z,24.23
2018-01-10T16:35:19.847Z,23.90
2018-01-10T16:37:48.078Z,24.27
2018-01-10T16:40:17.070Z,28.27
2018-01-10T16:42:46.141Z,27.23
2018-01-10T16:45:14.355Z,33.10
2018-01-10T16:47:42.716Z,24.23
2018-01-10T16:50:10.974Z,37.77
2018-01-10T16:52:39.391Z,33.83
2018-01-10T16:57:36.418Z,33.73
2018-01-10T17:00:04.667Z,27.97
2018-01-10T17:02:32.894Z,24.07
2018-01-10T17:05:02.063Z,24.07
2018-01-10T17:07:30.335Z,31.07
2018-01-10T17:09:58.588Z,33.13
2018-01-10T17:12:27.039Z,28.03
2018-01-10T17:14:55.327Z,36.53
2018-01-10T17:17:23.619Z,30.53
2018-01-10T17:19:51.929Z,27.07
2018-01-10T17:22:20.163Z,39.50
2018-01-10T17:24:48.440Z,37.57
2018-01-10T17:27:16.910Z,28.23
2018-01-10T17:29:45.190Z,32.47
2018-01-10T17:32:13.423Z,34.27
2018-01-10T17:34:42.429Z,32.23
2018-01-10T17:37:10.736Z,33.17
2018-01-10T17:39:39.111Z,26.47
2018-01-10T17:42:08.339Z,25.83
2018-01-10T17:44:37.142Z,26.30
2018-01-10T17:47:05.366Z,27.83
2018-01-10T17:49:33.704Z,27.50
2018-01-10T17:52:02.054Z,33.30
2018-01-10T17:54:30.409Z,27.20
2018-01-10T17:56:59.452Z,28.13
2018-01-10T17:59:27.846Z,35.27
2018-01-10T18:01:56.877Z,30.33
2018-01-10T18:04:26.293Z,30.03
2018-01-10T18:06:54.804Z,32.70
2018-01-10T18:09:23.021Z,34.07
2018-01-10T18:11:52.104Z,28.13
2018-01-10T18:14:21.228Z,32.93
2018-01-10T18:16:49.626Z,34.23
2018-01-10T18:19:19.138Z,37.40
2018-01-10T18:21:47.582Z,35.00
2018-01-10T18:24:15.896Z,34.77
2018-01-10T18:26:45.312Z,36.67
2018-01-10T18:29:13.992Z,29.67
2018-01-10T18:31:43.326Z,32.50
2018-01-10T18:34:11.772Z,34.67
2018-01-10T18:36:40.082Z,34.03
2018-01-10T18:39:08.621Z,32.50
2018-01-10T18:41:37.079Z,30.50
2018-01-10T18:44:06.132Z,32.70
2018-01-10T18:46:34.700Z,31.53
2018-01-10T18:49:03.146Z,34.43
2018-01-10T18:51:31.943Z,30.77
2018-01-10T18:54:01.609Z,27.73
2018-01-10T18:56:30.554Z,35.23
2018-01-10T18:58:58.889Z,32.17
2018-01-10T19:01:27.173Z,32.33
2018-01-10T19:03:55.581Z,30.53
2018-01-10T19:06:23.981Z,30.13
2018-01-10T19:08:53.574Z,30.00
2018-01-10T19:11:23.878Z,29.30
2018-01-10T19:13:52.426Z,33.73
2018-01-10T19:16:21.889Z,29.40
2018-01-10T19:18:50.647Z,30.10
2018-01-10T19:21:19.167Z,29.33
2018-01-10T19:23:47.536Z,33.70
2018-01-10T19:26:16.031Z,28.60
2018-01-10T19:28:44.512Z,29.43
2018-01-10T19:31:12.852Z,31.80
2018-01-10T19:33:41.282Z,34.53
2018-01-10T19:36:09.572Z,30.77
2018-01-10T19:38:37.810Z,33.57
2018-01-10T19:41:06.448Z,32.97
2018-01-10T19:43:35.454Z,36.13
2018-01-10T19:46:03.750Z,35.53
2018-01-10T19:48:32.135Z,32.40
2018-01-10T19:51:01.850Z,32.07
2018-01-10T19:53:32.190Z,30.07
2018-01-10T19:56:00.536Z,37.30
2018-01-10T19:58:29.850Z,37.17
2018-01-10T20:00:59.260Z,30.37
2018-01-10T20:03:27.620Z,35.00
2018-01-10T20:05:56.043Z,32.70
2018-01-10T20:08:25.404Z,31.20
2018-01-10T20:10:55.156Z,31.90
2018-01-10T20:13:24.215Z,31.73
2018-01-10T20:15:53.418Z,36.30
2018-01-10T20:18:21.720Z,36.63
2018-01-10T20:20:51.293Z,31.23
2018-01-10T20:23:21.632Z,30.27
2018-01-10T20:25:50.335Z,30.00
2018-01-10T20:28:19.354Z,31.37
2018-01-10T20:30:47.702Z,31.67
2018-01-10T20:33:16.015Z,37.70
2018-01-10T20:35:45.440Z,38.77
2018-01-10T20:38:15.284Z,33.10
2018-01-10T20:40:45.689Z,36.60
2018-01-10T20:43:14.975Z,42.20
2018-01-10T20:45:43.307Z,34.17
2018-01-10T20:48:11.597Z,38.77
2018-01-10T20:50:39.844Z,43.97
2018-01-10T20:53:08.268Z,40.80
2018-01-10T20:55:36.511Z,36.67
2018-01-10T20:58:04.754Z,31.47
2018-01-10T21:00:33.000Z,38.13
2018-01-10T21:03:02.570Z,38.40
2018-01-10T21:05:30.939Z,38.77
2018-01-10T21:07:59.266Z,34.23
2018-01-10T21:10:27.552Z,36.83
2018-01-10T21:12:55.830Z,42.27
2018-01-10T21:15:24.082Z,46.00
2018-01-10T21:17:53.111Z,43.87
2018-01-10T21:20:21.632Z,41.20
2018-01-10T21:22:50.154Z,40.63
2018-01-10T21:25:18.526Z,45.60
2018-01-10T21:27:47.618Z,46.23
2018-01-10T21:30:16.722Z,39.57
2018-01-10T21:32:46.146Z,44.87
2018-01-10T21:35:14.551Z,38.00
2018-01-10T21:37:43.584Z,39.60
2018-01-10T21:40:11.833Z,40.33
2018-01-10T21:42:40.144Z,48.17
2018-01-10T21:45:08.407Z,42.40
2018-01-10T21:47:36.704Z,47.23
2018-01-10T21:50:04.923Z,44.43
2018-01-10T21:52:33.903Z,39.23
2018-01-10T21:55:03.171Z,40.43
2018-01-10T21:57:31.447Z,41.90
2018-01-10T21:59:59.727Z,47.97
2018-01-10T22:02:28.003Z,44.37
2018-01-10T22:04:56.270Z,37.83
2018-01-10T22:07:24.514Z,47.57
2018-01-10T22:09:52.809Z,36.00
2018-01-10T22:12:21.026Z,42.03
2018-01-10T22:14:49.358Z,40.77
2018-01-10T22:17:17.663Z,41.50
2018-01-10T22:19:45.903Z,41.17
2018-01-10T22:22:14.170Z,44.70
2018-01-10T22:24:42.518Z,42.17
2018-01-10T22:27:10.821Z,47.00
2018-01-10T22:29:39.827Z,40.80
2018-01-10T22:32:08.106Z,50.47
2018-01-10T22:34:36.401Z,55.80
2018-01-10T22:37:04.718Z,39.33
2018-01-10T22:39:34.266Z,46.13
2018-01-10T22:42:03.151Z,48.70
2018-01-10T22:44:31.445Z,47.20
2018-01-10T22:46:59.747Z,44.13
2018-01-10T22:49:27.983Z,44.57
2018-01-10T22:51:56.215Z,37.10
2018-01-10T22:54:24.489Z,48.87
2018-01-10T22:56:52.710Z,41.50
2018-01-10T22:59:20.939Z,45.20
2018-01-10T23:01:49.222Z,41.00
2018-01-10T23:04:17.458Z,37.97
2018-01-10T23:06:45.906Z,40.90
2018-01-10T23:09:14.226Z,44.13
2018-01-10T23:11:42.475Z,40.63
2018-01-10T23:14:10.717Z,43.10
2018-01-10T23:16:39.794Z,40.80
2018-01-10T23:19:08.023Z,36.33
2018-01-10T23:21:36.261Z,32.63
2018-01-10T23:24:04.586Z,31.17
2018-01-10T23:26:32.816Z,26.60
2018-01-10T23:29:01.938Z,29.73
2018-01-10T23:31:30.199Z,37.00
2018-01-10T23:33:59.183Z,31.97
2018-01-10T23:36:28.174Z,31.83
2018-01-10T23:38:56.496Z,30.90
2018-01-10T23:41:24.813Z,31.00
2018-01-10T23:43:53.356Z,34.07
2018-01-10T23:46:21.650Z,30.40
2018-01-10T23:48:49.966Z,34.23
2018-01-10T23:51:18.958Z,39.30
2018-01-10T23:53:48.034Z,37.10
2018-01-10T23:56:16.297Z,36.23
2018-01-10T23:58:44.545Z,32.23
